createdAt,value
2022-12-25T00:00:05.501Z,2.50
2022-12-25T00:02:35.098Z,2.50
2022-12-25T00:05:03.382Z,2.65
2022-12-25T00:07:31.429Z,2.10
2022-12-25T00:09:59.769Z,2.73
2022-12-25T00:12:27.736Z,2.67
2022-12-25T00:14:55.877Z,3.50
2022-12-25T00:17:23.967Z,2.05
2022-12-25T00:19:53.672Z,2.67
2022-12-25T00:22:21.729Z,2.47
2022-12-25T00:24:50.749Z,2.80
2022-12-25T00:27:19.018Z,2.90
2022-12-25T00:29:47.113Z,2.90
2022-12-25T00:32:15.679Z,3.10
2022-12-25T00:34:43.675Z,2.58
2022-12-25T00:37:13.020Z,2.93
2022-12-25T00:39:41.210Z,2.57
2022-12-25T00:42:23.750Z,2.60
2022-12-25T00:44:52.201Z,3.27
2022-12-25T00:47:20.566Z,3.37
2022-12-25T00:49:48.684Z,3.33
2022-12-25T00:52:18.163Z,4.17
2022-12-25T00:54:46.282Z,3.37
2022-12-25T00:57:14.329Z,2.93
2022-12-25T00:59:42.425Z,3.57
2022-12-25T01:02:25.582Z,3.20
2022-12-25T01:04:55.801Z,2.90
2022-12-25T01:07:27.163Z,2.87
2022-12-25T01:10:12.833Z,2.10
2022-12-25T01:12:42.893Z,2.60
2022-12-25T01:15:12.466Z,2.27
2022-12-25T01:17:40.531Z,2.67
2022-12-25T01:20:09.700Z,2.20
2022-12-25T01:22:39.180Z,2.63
2022-12-25T01:25:08.982Z,1.83
2022-12-25T01:27:37.531Z,2.00
2022-12-25T01:30:06.630Z,2.47
2022-12-25T01:32:34.630Z,1.83
2022-12-25T01:35:02.680Z,2.67
2022-12-25T01:37:30.674Z,2.03
2022-12-25T01:40:00.081Z,2.17
2022-12-25T01:42:28.216Z,2.57
2022-12-25T01:45:31.718Z,2.63
2022-12-25T01:47:59.964Z,3.03
2022-12-25T01:50:28.837Z,2.23
2022-12-25T01:52:58.954Z,2.50
2022-12-25T01:55:29.350Z,1.63
2022-12-25T01:57:57.927Z,2.07
2022-12-25T02:00:26.177Z,2.03
2022-12-25T02:02:54.475Z,2.13
2022-12-25T02:05:26.211Z,3.10
2022-12-25T02:07:54.801Z,2.27
2022-12-25T02:10:23.197Z,2.57
2022-12-25T02:12:53.354Z,2.40
2022-12-25T02:15:23.649Z,2.77
2022-12-25T02:18:00.545Z,3.23
2022-12-25T02:21:10.171Z,2.43
2022-12-25T02:24:14.031Z,2.90
2022-12-25T02:27:01.806Z,2.53
2022-12-25T02:29:37.714Z,2.57
2022-12-25T02:32:13.638Z,2.83
2022-12-25T02:34:48.079Z,3.00
2022-12-25T02:37:20.219Z,2.70
2022-12-25T02:39:59.332Z,2.90
2022-12-25T02:42:48.678Z,3.23
2022-12-25T02:45:40.271Z,2.37
2022-12-25T02:48:27.549Z,2.67
2022-12-25T02:51:15.162Z,4.03
2022-12-25T02:54:02.262Z,2.20
2022-12-25T02:56:49.406Z,2.50
2022-12-25T02:59:37.350Z,2.65
2022-12-25T03:02:26.134Z,1.70
2022-12-25T03:05:14.952Z,2.22
2022-12-25T03:07:44.507Z,1.65
2022-12-25T03:10:33.170Z,1.73
2022-12-25T03:13:07.182Z,1.95
2022-12-25T03:15:53.359Z,1.58
2022-12-25T03:18:25.820Z,2.17
2022-12-25T03:21:12.629Z,2.20
2022-12-25T03:24:02.467Z,1.73
2022-12-25T03:26:48.520Z,1.75
2022-12-25T03:29:36.708Z,1.30
2022-12-25T03:32:16.733Z,1.52
2022-12-25T03:35:15.338Z,1.30
2022-12-25T03:38:12.239Z,1.42
2022-12-25T03:41:09.614Z,1.45
2022-12-25T03:44:03.733Z,1.40
2022-12-25T03:46:56.695Z,2.20
2022-12-25T03:49:46.849Z,1.17
2022-12-25T03:52:36.616Z,0.98
2022-12-25T03:55:27.158Z,1.20
2022-12-25T03:58:12.548Z,2.13
2022-12-25T04:00:58.193Z,1.77
2022-12-25T04:03:58.148Z,1.27
2022-12-25T04:06:43.614Z,1.63
2022-12-25T04:09:30.285Z,1.42
2022-12-25T04:12:15.760Z,1.00
2022-12-25T04:15:01.279Z,1.52
2022-12-25T04:17:46.849Z,1.10
2022-12-25T04:20:32.126Z,1.85
2022-12-25T04:23:17.829Z,1.20
2022-12-25T04:26:04.496Z,1.40
2022-12-25T04:28:50.005Z,1.40
2022-12-25T04:31:35.687Z,1.13
2022-12-25T04:34:21.000Z,1.08
2022-12-25T04:36:49.024Z,1.42
2022-12-25T04:39:17.011Z,0.77
2022-12-25T04:41:46.449Z,1.10
2022-12-25T04:44:14.696Z,1.20
2022-12-25T04:46:42.817Z,1.08
2022-12-25T04:49:10.868Z,1.13
2022-12-25T04:51:38.905Z,0.98
2022-12-25T04:54:06.989Z,1.10
2022-12-25T04:56:38.538Z,0.88
2022-12-25T04:59:11.328Z,1.13
2022-12-25T05:01:39.407Z,1.10
2022-12-25T05:04:07.579Z,1.23
2022-12-25T05:06:35.613Z,1.10
2022-12-25T05:09:04.192Z,0.90
2022-12-25T05:11:32.180Z,0.93
2022-12-25T05:14:00.163Z,0.82
2022-12-25T05:16:29.974Z,0.98
2022-12-25T05:18:59.412Z,0.95
2022-12-25T05:21:27.513Z,1.48
2022-12-25T05:23:55.507Z,1.23
2022-12-25T05:26:25.343Z,1.13
2022-12-25T05:28:53.900Z,0.82
2022-12-25T05:31:22.444Z,0.82
2022-12-25T05:33:52.724Z,1.05
2022-12-25T05:36:20.975Z,1.08
2022-12-25T05:38:49.183Z,1.38
2022-12-25T05:41:17.273Z,1.25
2022-12-25T05:43:45.259Z,1.35
2022-12-25T05:46:15.125Z,1.00
2022-12-25T05:48:43.275Z,1.45
2022-12-25T05:51:14.743Z,1.20
2022-12-25T05:53:43.958Z,1.20
2022-12-25T05:56:12.290Z,0.90
2022-12-25T05:58:41.352Z,1.35
2022-12-25T06:01:13.758Z,1.17
2022-12-25T06:03:41.876Z,1.10
2022-12-25T06:06:10.092Z,1.42
2022-12-25T06:08:39.575Z,1.58
2022-12-25T06:11:09.017Z,1.40
2022-12-25T06:13:38.198Z,1.15
2022-12-25T06:16:07.549Z,1.02
2022-12-25T06:18:37.114Z,1.42
2022-12-25T06:21:08.728Z,0.93
2022-12-25T06:23:36.809Z,0.68
2022-12-25T06:26:08.421Z,1.05
2022-12-25T06:28:37.025Z,1.17
2022-12-25T06:31:07.906Z,0.90
2022-12-25T06:33:36.412Z,1.15
2022-12-25T06:36:09.312Z,1.40
2022-12-25T06:38:37.563Z,1.00
2022-12-25T06:41:08.517Z,1.73
2022-12-25T06:43:36.599Z,1.45
2022-12-25T06:46:06.361Z,1.15
2022-12-25T06:48:35.185Z,1.52
2022-12-25T06:51:04.054Z,1.65
2022-12-25T06:53:39.813Z,1.40
2022-12-25T06:56:15.372Z,1.40
2022-12-25T06:58:44.907Z,1.42
2022-12-25T07:01:18.505Z,1.20
2022-12-25T07:03:48.022Z,1.52
2022-12-25T07:06:16.165Z,1.33
2022-12-25T07:08:44.224Z,1.05
2022-12-25T07:11:13.711Z,1.35
2022-12-25T07:13:41.759Z,0.93
2022-12-25T07:16:11.681Z,0.98
2022-12-25T07:18:40.088Z,1.02
2022-12-25T07:21:09.177Z,1.30
2022-12-25T07:23:38.728Z,1.52
2022-12-25T07:26:07.661Z,1.48
2022-12-25T07:28:37.164Z,1.13
2022-12-25T07:31:06.988Z,0.98
2022-12-25T07:33:35.339Z,1.00
2022-12-25T07:36:05.387Z,0.80
2022-12-25T07:38:33.779Z,0.90
2022-12-25T07:41:01.950Z,1.10
2022-12-25T07:43:29.994Z,0.98
2022-12-25T07:46:00.613Z,1.50
2022-12-25T07:48:29.473Z,1.67
2022-12-25T07:50:59.075Z,1.27
2022-12-25T07:53:27.385Z,1.63
2022-12-25T07:56:00.085Z,1.10
2022-12-25T07:58:28.492Z,1.23
2022-12-25T08:00:57.207Z,1.45
2022-12-25T08:03:26.836Z,1.25
2022-12-25T08:05:55.007Z,1.30
2022-12-25T08:08:23.031Z,1.35
2022-12-25T08:10:51.040Z,1.40
2022-12-25T08:13:19.020Z,1.48
2022-12-25T08:15:47.162Z,0.90
2022-12-25T08:18:15.197Z,1.33
2022-12-25T08:20:44.686Z,1.50
2022-12-25T08:23:12.746Z,1.25
2022-12-25T08:25:40.834Z,1.20
2022-12-25T08:28:08.990Z,1.27
2022-12-25T08:30:39.391Z,1.80
2022-12-25T08:33:07.576Z,1.10
2022-12-25T08:35:36.448Z,1.67
2022-12-25T08:38:06.029Z,1.00
2022-12-25T08:40:34.062Z,0.93
2022-12-25T08:43:02.125Z,1.65
2022-12-25T08:45:35.013Z,1.58
2022-12-25T08:48:03.828Z,1.30
2022-12-25T08:50:32.164Z,1.63
2022-12-25T08:53:00.500Z,1.30
2022-12-25T08:55:30.558Z,0.93
2022-12-25T08:57:58.917Z,1.20
2022-12-25T09:00:26.974Z,1.23
2022-12-25T09:02:55.297Z,1.60
2022-12-25T09:05:23.587Z,0.98
2022-12-25T09:07:52.195Z,1.02
2022-12-25T09:10:20.374Z,0.80
2022-12-25T09:12:49.848Z,0.98
2022-12-25T09:15:18.002Z,1.05
2022-12-25T09:17:46.096Z,1.15
2022-12-25T09:20:14.174Z,0.88
2022-12-25T09:22:42.238Z,1.67
2022-12-25T09:25:13.806Z,1.08
2022-12-25T09:27:43.684Z,1.02
2022-12-25T09:30:13.699Z,1.30
2022-12-25T09:32:41.909Z,0.93
2022-12-25T09:35:10.991Z,1.63
2022-12-25T09:37:39.208Z,1.13
2022-12-25T09:40:11.005Z,1.17
2022-12-25T09:42:39.998Z,1.38
2022-12-25T09:45:16.042Z,1.42
2022-12-25T09:47:48.504Z,1.55
2022-12-25T09:50:23.012Z,1.63
2022-12-25T09:52:57.007Z,1.50
2022-12-25T09:55:27.756Z,1.35
2022-12-25T09:57:58.115Z,0.88
2022-12-25T10:00:33.512Z,1.90
2022-12-25T10:03:15.119Z,1.40
2022-12-25T10:06:03.257Z,1.88
2022-12-25T10:08:49.898Z,1.70
2022-12-25T10:11:28.524Z,1.52
2022-12-25T10:14:11.680Z,1.92
2022-12-25T10:16:47.327Z,1.40
2022-12-25T10:19:33.639Z,1.75
2022-12-25T10:22:09.519Z,1.50
2022-12-25T10:24:42.922Z,1.63
2022-12-25T10:27:19.675Z,1.45
2022-12-25T10:29:56.605Z,1.50
2022-12-25T10:32:26.504Z,2.03
2022-12-25T10:34:54.953Z,1.35
2022-12-25T10:37:23.421Z,1.20
2022-12-25T10:39:51.627Z,1.27
2022-12-25T10:42:29.729Z,1.75
2022-12-25T10:45:02.464Z,1.45
2022-12-25T10:47:33.862Z,1.40
2022-12-25T10:50:08.848Z,1.75
2022-12-25T10:52:52.119Z,1.20
2022-12-25T10:55:28.174Z,1.15
2022-12-25T10:57:57.959Z,1.30
2022-12-25T11:00:28.664Z,1.08
2022-12-25T11:02:59.193Z,1.30
2022-12-25T11:05:30.090Z,1.30
2022-12-25T11:08:00.268Z,1.00
2022-12-25T11:10:31.939Z,0.95
2022-12-25T11:13:02.223Z,1.23
2022-12-25T11:15:37.784Z,1.40
2022-12-25T11:18:20.324Z,1.13
2022-12-25T11:20:53.004Z,1.40
2022-12-25T11:23:23.830Z,0.80
2022-12-25T11:26:00.988Z,1.33
2022-12-25T11:28:30.672Z,1.40
2022-12-25T11:31:02.858Z,1.88
2022-12-25T11:33:37.949Z,1.30
2022-12-25T11:36:17.010Z,1.20
2022-12-25T11:38:45.009Z,1.40
2022-12-25T11:41:20.447Z,1.77
2022-12-25T11:43:53.738Z,1.08
2022-12-25T11:46:25.273Z,1.70
2022-12-25T11:48:59.303Z,1.63
2022-12-25T11:51:33.091Z,1.42
2022-12-25T11:54:05.185Z,1.88
2022-12-25T11:56:34.182Z,1.27
2022-12-25T11:59:09.335Z,2.10
2022-12-25T12:01:44.706Z,1.13
2022-12-25T12:04:25.898Z,1.50
2022-12-25T12:07:03.977Z,1.40
2022-12-25T12:09:44.079Z,1.73
2022-12-25T12:12:19.276Z,1.40
2022-12-25T12:14:54.794Z,1.38
2022-12-25T12:17:22.919Z,1.60
2022-12-25T12:19:52.636Z,1.27
2022-12-25T12:22:24.319Z,1.88
2022-12-25T12:24:59.646Z,1.25
2022-12-25T12:27:32.867Z,1.55
2022-12-25T12:30:01.805Z,1.20
2022-12-25T12:32:40.148Z,1.35
2022-12-25T12:35:16.689Z,1.48
2022-12-25T12:37:47.795Z,1.67
2022-12-25T12:40:40.643Z,1.40
2022-12-25T12:43:29.333Z,1.30
2022-12-25T12:46:01.326Z,1.23
2022-12-25T12:48:37.873Z,1.50
2022-12-25T12:51:09.844Z,1.33
2022-12-25T12:53:39.644Z,1.67
2022-12-25T12:56:17.280Z,1.30
2022-12-25T12:58:49.996Z,1.13
2022-12-25T13:01:40.330Z,1.23
2022-12-25T13:04:33.704Z,1.33
2022-12-25T13:07:12.715Z,2.28
2022-12-25T13:09:52.908Z,1.58
2022-12-25T13:12:23.357Z,1.40
2022-12-25T13:14:51.772Z,1.90
2022-12-25T13:17:23.622Z,1.40
2022-12-25T13:19:56.463Z,1.25
2022-12-25T13:22:27.364Z,1.35
2022-12-25T13:25:00.473Z,1.70
2022-12-25T13:27:30.873Z,1.42
2022-12-25T13:30:00.963Z,0.95
2022-12-25T13:32:31.601Z,1.13
2022-12-25T13:35:00.796Z,0.80
2022-12-25T13:37:32.279Z,1.05
2022-12-25T13:40:03.018Z,1.08
2022-12-25T13:42:33.325Z,1.20
2022-12-25T13:45:06.015Z,0.65
2022-12-25T13:47:36.181Z,0.80
2022-12-25T13:50:18.646Z,0.45
2022-12-25T13:52:48.722Z,0.73
2022-12-25T13:55:19.119Z,0.73
2022-12-25T13:57:53.759Z,0.60
2022-12-25T14:00:25.663Z,0.60
2022-12-25T14:02:56.174Z,0.50
2022-12-25T14:05:31.314Z,0.50
2022-12-25T14:08:05.734Z,0.50
2022-12-25T14:10:38.647Z,0.90
2022-12-25T14:13:12.388Z,0.60
2022-12-25T14:15:41.812Z,0.60
2022-12-25T14:18:16.438Z,0.80
2022-12-25T14:20:59.131Z,0.63
2022-12-25T14:23:34.262Z,0.50
2022-12-25T14:26:02.423Z,1.15
2022-12-25T14:28:32.923Z,1.15
2022-12-25T14:31:02.462Z,0.93
2022-12-25T14:33:36.269Z,1.02
2022-12-25T14:36:04.785Z,1.20
2022-12-25T14:38:35.322Z,0.70
2022-12-25T14:41:05.948Z,1.20
2022-12-25T14:43:34.642Z,1.48
2022-12-25T14:46:06.341Z,1.00
2022-12-25T14:48:35.898Z,1.08
2022-12-25T14:51:07.277Z,1.27
2022-12-25T14:53:40.735Z,1.08
2022-12-25T14:56:10.564Z,1.40
2022-12-25T14:58:43.787Z,1.45
2022-12-25T15:01:22.075Z,1.23
2022-12-25T15:03:50.456Z,1.20
2022-12-25T15:06:20.748Z,1.27
2022-12-25T15:08:59.185Z,1.27
2022-12-25T15:11:27.587Z,2.15
2022-12-25T15:13:55.723Z,2.55
2022-12-25T15:16:26.082Z,1.60
2022-12-25T15:18:55.492Z,1.23
2022-12-25T15:21:27.471Z,1.17
2022-12-25T15:23:58.066Z,1.33
2022-12-25T15:26:27.009Z,1.25
2022-12-25T15:28:55.343Z,1.77
2022-12-25T15:31:26.738Z,1.27
2022-12-25T15:33:56.758Z,1.77
2022-12-25T15:36:25.627Z,1.65
2022-12-25T15:38:54.771Z,1.40
2022-12-25T15:41:45.253Z,1.90
2022-12-25T15:44:14.041Z,1.70
2022-12-25T15:46:42.374Z,1.55
2022-12-25T15:49:11.499Z,1.55
2022-12-25T15:51:39.581Z,1.90
2022-12-25T15:54:08.632Z,1.70
2022-12-25T15:56:44.145Z,2.05
2022-12-25T15:59:15.686Z,2.08
2022-12-25T16:01:47.409Z,1.63
2022-12-25T16:04:15.813Z,2.13
2022-12-25T16:06:43.843Z,1.80
2022-12-25T16:09:13.187Z,1.85
2022-12-25T16:11:42.813Z,1.95
2022-12-25T16:14:11.470Z,2.30
2022-12-25T16:16:40.146Z,1.45
2022-12-25T16:19:08.550Z,1.90
2022-12-25T16:21:40.408Z,1.77
2022-12-25T16:24:09.989Z,1.77
2022-12-25T16:26:38.092Z,1.80
2022-12-25T16:29:08.510Z,1.88
2022-12-25T16:31:37.365Z,1.30
2022-12-25T16:34:06.916Z,2.38
2022-12-25T16:36:35.690Z,2.00
2022-12-25T16:39:04.489Z,1.95
2022-12-25T16:41:32.658Z,1.65
2022-12-25T16:44:03.560Z,1.85
2022-12-25T16:46:33.916Z,2.25
2022-12-25T16:49:01.993Z,2.08
2022-12-25T16:51:30.303Z,1.70
2022-12-25T16:53:58.462Z,2.08
2022-12-25T16:56:28.486Z,2.03
2022-12-25T16:58:57.988Z,2.30
2022-12-25T17:01:27.701Z,1.88
2022-12-25T17:04:01.847Z,2.00
2022-12-25T17:06:30.628Z,2.50
2022-12-25T17:09:02.273Z,2.30
2022-12-25T17:11:32.446Z,2.53
2022-12-25T17:14:02.669Z,2.05
2022-12-25T17:16:32.908Z,2.00
2022-12-25T17:19:04.597Z,2.20
2022-12-25T17:21:34.385Z,1.98
2022-12-25T17:24:04.181Z,2.35
2022-12-25T17:26:32.603Z,2.35
2022-12-25T17:29:00.834Z,1.83
2022-12-25T17:31:30.462Z,2.40
2022-12-25T17:33:58.727Z,1.83
2022-12-25T17:36:28.380Z,1.65
2022-12-25T17:38:56.514Z,1.80
2022-12-25T17:41:24.735Z,1.90
2022-12-25T17:43:52.934Z,1.60
2022-12-25T17:46:23.315Z,2.22
2022-12-25T17:48:56.741Z,2.15
2022-12-25T17:51:27.855Z,2.47
2022-12-25T17:53:59.393Z,1.98
2022-12-25T17:56:27.712Z,2.40
2022-12-25T17:58:57.743Z,2.58
2022-12-25T18:01:27.733Z,1.98
2022-12-25T18:03:56.423Z,1.90
2022-12-25T18:06:27.861Z,2.20
2022-12-25T18:08:58.795Z,1.83
2022-12-25T18:11:33.098Z,1.55
2022-12-25T18:14:03.343Z,1.70
2022-12-25T18:16:33.863Z,1.40
2022-12-25T18:19:02.694Z,2.00
2022-12-25T18:21:32.020Z,1.80
2022-12-25T18:24:03.686Z,1.88
2022-12-25T18:26:31.774Z,1.40
2022-12-25T18:28:59.979Z,1.25
2022-12-25T18:31:30.591Z,1.40
2022-12-25T18:34:00.952Z,1.17
2022-12-25T18:36:31.273Z,1.40
2022-12-25T18:39:01.798Z,1.63
2022-12-25T18:41:31.118Z,1.40
2022-12-25T18:44:01.330Z,2.00
2022-12-25T18:46:30.490Z,1.20
2022-12-25T18:48:59.026Z,1.58
2022-12-25T18:51:33.133Z,1.27
2022-12-25T18:54:07.541Z,1.65
2022-12-25T18:56:35.850Z,1.27
2022-12-25T18:59:04.099Z,1.50
2022-12-25T19:01:34.453Z,1.70
2022-12-25T19:04:05.417Z,1.25
2022-12-25T19:06:34.303Z,1.23
2022-12-25T19:09:09.590Z,0.85
2022-12-25T19:11:46.533Z,1.20
2022-12-25T19:14:15.914Z,1.40
2022-12-25T19:16:44.301Z,1.50
2022-12-25T19:19:13.426Z,1.50
2022-12-25T19:21:41.755Z,1.20
2022-12-25T19:24:10.034Z,1.13
2022-12-25T19:26:39.627Z,1.30
2022-12-25T19:29:07.981Z,1.73
2022-12-25T19:31:38.103Z,1.15
2022-12-25T19:34:06.933Z,1.42
2022-12-25T19:36:35.967Z,1.27
2022-12-25T19:39:04.730Z,1.17
2022-12-25T19:41:33.924Z,1.30
2022-12-25T19:44:04.128Z,1.50
2022-12-25T19:46:34.105Z,1.70
2022-12-25T19:49:04.427Z,1.10
2022-12-25T19:51:35.102Z,1.10
2022-12-25T19:54:04.890Z,1.67
2022-12-25T19:56:35.683Z,1.63
2022-12-25T19:59:07.402Z,1.33
2022-12-25T20:01:36.003Z,0.98
2022-12-25T20:04:04.716Z,1.10
2022-12-25T20:06:35.194Z,1.20
2022-12-25T20:09:05.870Z,1.42
2022-12-25T20:11:35.736Z,1.15
2022-12-25T20:14:08.064Z,1.42
2022-12-25T20:16:40.382Z,1.52
2022-12-25T20:19:11.958Z,1.00
2022-12-25T20:21:42.934Z,1.25
2022-12-25T20:24:11.703Z,1.20
2022-12-25T20:26:41.699Z,1.60
2022-12-25T20:29:13.303Z,1.85
2022-12-25T20:31:44.228Z,1.55
2022-12-25T20:34:13.288Z,1.25
2022-12-25T20:36:42.696Z,1.70
2022-12-25T20:39:13.970Z,1.23
2022-12-25T20:41:42.764Z,1.30
2022-12-25T20:44:13.348Z,1.05
2022-12-25T20:46:41.875Z,1.30
2022-12-25T20:49:10.229Z,1.33
2022-12-25T20:51:39.092Z,1.63
2022-12-25T20:54:09.469Z,1.25
2022-12-25T20:56:38.039Z,1.23
2022-12-25T20:59:07.296Z,1.10
2022-12-25T21:01:37.275Z,1.35
2022-12-25T21:04:05.697Z,1.58
2022-12-25T21:06:35.015Z,1.38
2022-12-25T21:09:03.449Z,1.33
2022-12-25T21:11:32.576Z,1.30
2022-12-25T21:14:01.268Z,1.42
2022-12-25T21:16:29.675Z,1.83
2022-12-25T21:18:59.285Z,1.77
2022-12-25T21:21:28.378Z,1.60
2022-12-25T21:23:57.876Z,1.45
2022-12-25T21:26:28.922Z,1.30
2022-12-25T21:29:00.528Z,1.00
2022-12-25T21:31:29.299Z,1.33
2022-12-25T21:33:57.979Z,1.20
2022-12-25T21:36:29.710Z,1.25
2022-12-25T21:38:59.809Z,1.10
2022-12-25T21:41:30.524Z,1.90
2022-12-25T21:43:59.038Z,1.58
2022-12-25T21:46:27.945Z,1.42
2022-12-25T21:48:56.465Z,1.33
2022-12-25T21:51:45.202Z,1.50
2022-12-25T21:54:14.878Z,1.35
2022-12-25T21:56:45.890Z,1.60
2022-12-25T21:59:16.229Z,1.65
2022-12-25T22:01:45.820Z,1.63
2022-12-25T22:04:15.507Z,1.70
2022-12-25T22:07:02.960Z,1.67
2022-12-25T22:09:31.837Z,1.65
2022-12-25T22:12:17.614Z,1.80
2022-12-25T22:14:56.759Z,1.55
2022-12-25T22:17:44.988Z,1.60
2022-12-25T22:20:17.097Z,1.88
2022-12-25T22:22:49.474Z,1.80
2022-12-25T22:25:20.612Z,1.40
2022-12-25T22:27:50.722Z,1.63
2022-12-25T22:30:22.625Z,1.45
2022-12-25T22:32:52.476Z,1.25
2022-12-25T22:35:21.563Z,2.13
2022-12-25T22:37:51.405Z,1.42
2022-12-25T22:40:20.839Z,1.52
2022-12-25T22:42:49.236Z,2.00
2022-12-25T22:45:17.475Z,1.80
2022-12-25T22:47:45.635Z,1.50
2022-12-25T22:50:15.655Z,1.70
2022-12-25T22:52:45.799Z,1.88
2022-12-25T22:55:19.211Z,1.60
2022-12-25T22:57:47.382Z,2.03
2022-12-25T23:00:15.674Z,2.28
2022-12-25T23:02:43.861Z,1.90
2022-12-25T23:05:12.766Z,1.85
2022-12-25T23:07:41.965Z,2.20
2022-12-25T23:10:11.488Z,2.00
2022-12-25T23:12:58.228Z,2.00
2022-12-25T23:15:27.629Z,1.80
2022-12-25T23:18:13.253Z,1.90
2022-12-25T23:20:58.773Z,1.98
2022-12-25T23:23:44.337Z,2.67
2022-12-25T23:26:12.697Z,2.03
2022-12-25T23:29:01.289Z,1.95
2022-12-25T23:31:34.429Z,1.60
2022-12-25T23:34:03.145Z,1.95
2022-12-25T23:36:31.251Z,1.98
2022-12-25T23:39:04.776Z,1.65
2022-12-25T23:41:35.104Z,1.65
2022-12-25T23:44:05.195Z,1.58
2022-12-25T23:46:33.472Z,1.85
2022-12-25T23:49:01.550Z,2.00
2022-12-25T23:51:29.582Z,2.10
2022-12-25T23:53:57.621Z,1.95
2022-12-25T23:56:25.653Z,2.33
2022-12-25T23:58:53.669Z,1.88
